Cedarpines Park, CA (92322)

10:44 PM PDT on April 25, 2017 (GMT -0700)
Red House Cedarpines Park | | Change Station
Active Advisory: Wind Advisory

Elev 5220 ft 34.25 °N, 117.33 °W | Updated 40 seconds ago

Partly Cloudy
Partly Cloudy
46.0 °F
Feels Like 46 °F
N
0.0
Wind Variable Wind from East
Gusts 0.0 mph

Today
High -- | Low -- °F
--% Chance of Precip.
Yesterday
High -- | Low -- °F
Precip. -- in
Pressure 29.99 in
Visibility 10.0 miles
Clouds Clear
Windchill 46 °F
Dew Point 31 °F
Humidity 56%
Rainfall 0.00 in
Snow Depth Not available.
6:05 AM 7:29 PM
Waning Crescent, 0% visible
METAR KVCV 260535Z AUTO 26008G15KT 10SM CLR 13/00 A2999 RMK AO2
Pressure 29.99 in
Visibility 10.0 miles
Clouds Clear
Windchill 46 °F
Dew Point 31 °F
Humidity 56%
Rainfall 0.00 in
Snow Depth Not available.
6:05 AM 7:29 PM
Waning Crescent, 0% visible
METAR KVCV 260535Z AUTO 26008G15KT 10SM CLR 13/00 A2999 RMK AO2

Get Your Daily Forecast Email!

Thanks for signing up!

Be on the lookout for a verification email in your inbox.

You'll start receiving severe weather alerts in your inbox..

×

10-Day Weather Forecast

Almanac

Astronomy

Apr. 25, 2017 Rise Set
Actual Time
Civil Twilight
Nautical Twilight
Astronomical Twilight
Moon
Length of Visible Light
Length of Day
Tomorrow will be .
, % of the Moon is Illuminated

Today's Extremes

State Highs State Lows

Community

WunderPhotos

WunderBlog® & News

Nearby

Air Quality

  Air Quality AQ Index Pollutant
Not available.

Snow Depth

Station Depth Elevation

Earthquake Activity

City Distance Mag. Time & Date
Minimum magnitude displayed is 2.5.

Coastal Water Temperatures

Place Temperature

Stations

Nearby Weather Stations

Station Location Temp. Windchill Dew Point Humidity Wind Precip. Elev Updated Type
                   

Watches & Warnings

Wind Advisory
Issued: 9:35 PM PDT Apr. 25, 2017 – National Weather Service

... Wind Advisory in effect from 1 PM Wednesday to 3 am PDT
Thursday...

The National Weather Service in San Diego has issued a Wind
Advisory, which is in effect from 1 PM Wednesday to 3 am PDT
Thursday.

* Winds... areas of westerly winds 20 to 30 mph, with gusts to
around 60 mph.

* Timing... Wednesday afternoon through Wednesday night.

* Location... strongest winds from the Mountain Ridge tops along
Desert Mountain slopes into adjacent desert areas.

* Visibility... reduced at times below 3 miles in blowing sand and
blowing dust in the deserts.

* Impacts... the winds will make driving difficult... especially for
motorists with high profile vehicles. Watch for broken tree
limbs. In the deserts... areas of blowing dust and sand will
reduce visibility at times.

Precautionary/preparedness actions...

A Wind Advisory means that winds of 35 mph are expected. Winds
this strong can make driving difficult... especially for high
profile vehicles. Use extra caution.



Jjt